createdAt,value
2022-11-17T00:01:59.286Z,10.67
2022-11-17T00:04:30.045Z,10.97
2022-11-17T00:06:58.955Z,11.40
2022-11-17T00:09:27.891Z,10.93
2022-11-17T00:12:13.894Z,11.27
2022-11-17T00:14:43.848Z,11.37
2022-11-17T00:17:14.110Z,10.37
2022-11-17T00:20:00.316Z,11.13
2022-11-17T00:22:32.028Z,10.60
2022-11-17T00:25:00.718Z,10.90
2022-11-17T00:27:29.250Z,10.27
2022-11-17T00:29:59.167Z,10.77
2022-11-17T00:32:59.878Z,10.63
2022-11-17T00:35:28.581Z,11.40
2022-11-17T00:38:11.003Z,11.00
2022-11-17T00:40:39.657Z,11.10
2022-11-17T00:43:08.220Z,10.97
2022-11-17T00:45:38.243Z,11.27
2022-11-17T00:48:07.559Z,10.87
2022-11-17T00:50:36.165Z,10.50
2022-11-17T00:53:04.723Z,10.60
2022-11-17T00:55:33.337Z,10.73
2022-11-17T00:58:01.965Z,11.30
2022-11-17T01:00:30.596Z,10.20
2022-11-17T01:03:00.490Z,10.20
2022-11-17T01:05:32.836Z,10.60
2022-11-17T01:08:01.750Z,10.87
2022-11-17T01:10:30.273Z,11.97
2022-11-17T01:12:58.826Z,11.20
2022-11-17T01:15:27.418Z,11.57
2022-11-17T01:17:56.043Z,11.20
2022-11-17T01:20:26.044Z,10.87
2022-11-17T01:22:55.396Z,11.43
2022-11-17T01:25:24.014Z,10.97
2022-11-17T01:27:52.533Z,11.03
2022-11-17T01:30:21.171Z,10.40
2022-11-17T01:32:49.683Z,10.30
2022-11-17T01:35:18.373Z,10.33
2022-11-17T01:37:48.276Z,10.77
2022-11-17T01:40:16.993Z,10.43
2022-11-17T01:42:45.573Z,11.17
2022-11-17T01:45:20.098Z,10.50
2022-11-17T01:47:51.549Z,10.50
2022-11-17T01:50:26.236Z,10.37
2022-11-17T01:53:00.141Z,11.17
2022-11-17T01:55:33.574Z,10.33
2022-11-17T01:58:07.613Z,10.77
2022-11-17T02:00:36.391Z,10.33
2022-11-17T02:03:07.143Z,11.03
2022-11-17T02:05:46.536Z,10.93
2022-11-17T02:08:18.119Z,10.97
2022-11-17T02:10:51.657Z,10.63
2022-11-17T02:13:21.502Z,10.67
2022-11-17T02:15:50.064Z,10.63
2022-11-17T02:18:19.080Z,10.83
2022-11-17T02:20:55.488Z,10.07
2022-11-17T02:23:57.409Z,11.30
2022-11-17T02:26:51.799Z,10.10
2022-11-17T02:29:27.333Z,11.27
2022-11-17T02:32:03.046Z,10.60
2022-11-17T02:34:39.310Z,11.43
2022-11-17T02:37:15.025Z,11.20
2022-11-17T02:39:51.059Z,11.20
2022-11-17T02:42:47.907Z,11.23
2022-11-17T02:45:21.538Z,11.03
2022-11-17T02:47:55.345Z,11.87
2022-11-17T02:50:28.381Z,10.70
2022-11-17T02:52:57.940Z,10.80
2022-11-17T02:55:27.686Z,10.80
2022-11-17T02:57:56.279Z,11.57
2022-11-17T03:00:28.157Z,11.07
2022-11-17T03:03:14.990Z,11.13
2022-11-17T03:05:56.202Z,11.67
2022-11-17T03:08:33.854Z,10.83
2022-11-17T03:11:05.089Z,11.57
2022-11-17T03:13:45.046Z,11.93
2022-11-17T03:16:24.705Z,11.63
2022-11-17T03:19:02.443Z,11.77
2022-11-17T03:21:36.070Z,11.43
2022-11-17T03:24:11.675Z,11.53
2022-11-17T03:26:44.063Z,11.03
2022-11-17T03:29:15.890Z,11.70
2022-11-17T03:31:49.447Z,11.40
2022-11-17T03:34:23.091Z,11.47
2022-11-17T03:36:55.002Z,11.13
2022-11-17T03:39:28.685Z,11.63
2022-11-17T03:42:02.601Z,11.90
2022-11-17T03:44:35.038Z,11.87
2022-11-17T03:47:08.371Z,11.60
2022-11-17T03:49:44.467Z,12.20
2022-11-17T03:52:13.084Z,12.00
2022-11-17T03:54:42.631Z,11.70
2022-11-17T03:57:16.970Z,12.57
2022-11-17T03:59:53.997Z,12.53
2022-11-17T04:02:25.728Z,11.90
2022-11-17T04:05:10.948Z,12.00
2022-11-17T04:07:41.208Z,11.83
2022-11-17T04:10:12.288Z,11.40
2022-11-17T04:12:58.164Z,11.50
2022-11-17T04:15:47.172Z,11.10
2022-11-17T04:18:17.386Z,11.73
2022-11-17T04:20:46.110Z,12.20
2022-11-17T04:23:16.214Z,11.83
2022-11-17T04:26:04.171Z,11.80
2022-11-17T04:28:40.272Z,12.17
2022-11-17T04:31:11.586Z,11.40
2022-11-17T04:33:43.456Z,11.90
2022-11-17T04:36:14.040Z,11.13
2022-11-17T04:38:43.692Z,11.90
2022-11-17T04:41:31.426Z,11.43
2022-11-17T04:44:00.381Z,10.90
2022-11-17T04:46:31.278Z,10.63
2022-11-17T04:49:01.954Z,11.37
2022-11-17T04:51:31.533Z,11.90
2022-11-17T04:54:00.595Z,11.00
2022-11-17T04:56:29.870Z,10.93
2022-11-17T04:58:58.520Z,10.97
2022-11-17T05:01:28.400Z,11.83
2022-11-17T05:03:58.735Z,11.13
2022-11-17T05:06:32.086Z,11.47
2022-11-17T05:09:02.150Z,10.90
2022-11-17T05:11:49.283Z,10.37
2022-11-17T05:14:19.584Z,10.80
2022-11-17T05:17:11.020Z,10.57
2022-11-17T05:19:44.192Z,11.33
2022-11-17T05:22:33.792Z,10.47
2022-11-17T05:25:02.570Z,11.07
2022-11-17T05:27:31.243Z,10.60
2022-11-17T05:29:59.863Z,11.33
2022-11-17T05:32:28.495Z,10.70
2022-11-17T05:34:57.106Z,10.73
2022-11-17T05:37:27.016Z,11.73
2022-11-17T05:39:55.691Z,10.50
2022-11-17T05:42:24.363Z,9.73
2022-11-17T05:44:52.972Z,12.00
2022-11-17T05:47:21.464Z,10.90
2022-11-17T05:49:50.018Z,10.50
2022-11-17T05:52:18.768Z,10.80
2022-11-17T05:54:48.681Z,11.20
2022-11-17T05:57:22.271Z,11.00
2022-11-17T05:59:55.116Z,10.90
2022-11-17T06:02:28.316Z,10.37
2022-11-17T06:04:56.904Z,10.20
2022-11-17T06:07:25.592Z,10.90
2022-11-17T06:09:56.126Z,10.70
2022-11-17T06:12:24.656Z,11.20
2022-11-17T06:14:53.239Z,10.77
2022-11-17T06:17:25.111Z,10.97
2022-11-17T06:19:57.874Z,10.13
2022-11-17T06:22:28.523Z,10.60
2022-11-17T06:24:59.698Z,10.33
2022-11-17T06:27:29.238Z,10.73
2022-11-17T06:30:00.322Z,10.53
2022-11-17T06:32:29.462Z,10.20
2022-11-17T06:34:59.051Z,9.93
2022-11-17T06:37:27.769Z,10.13
2022-11-17T06:39:56.591Z,10.30
2022-11-17T06:42:40.409Z,9.50
2022-11-17T06:45:10.116Z,10.20
2022-11-17T06:47:38.826Z,9.33
2022-11-17T06:50:08.159Z,8.83
2022-11-17T06:52:36.829Z,9.30
2022-11-17T06:55:05.993Z,9.10
2022-11-17T06:57:35.905Z,8.40
2022-11-17T07:00:06.248Z,7.90
2022-11-17T07:02:36.680Z,8.87
2022-11-17T07:05:05.689Z,8.97
2022-11-17T07:07:34.499Z,8.17
2022-11-17T07:10:03.131Z,8.23
2022-11-17T07:12:31.823Z,7.67
2022-11-17T07:15:02.154Z,7.80
2022-11-17T07:17:31.069Z,7.87
2022-11-17T07:19:59.627Z,7.33
2022-11-17T07:22:28.389Z,8.97
2022-11-17T07:24:56.957Z,8.03
2022-11-17T07:27:25.811Z,7.80
2022-11-17T07:29:54.423Z,7.90
2022-11-17T07:32:24.536Z,7.37
2022-11-17T07:34:53.091Z,7.40
2022-11-17T07:37:22.680Z,7.13
2022-11-17T07:39:51.310Z,7.40
2022-11-17T07:42:20.045Z,7.23
2022-11-17T07:44:55.141Z,6.63
2022-11-17T07:47:25.281Z,7.13
2022-11-17T07:49:53.911Z,6.90
2022-11-17T07:52:22.473Z,7.00
2022-11-17T07:54:51.139Z,7.13
2022-11-17T07:57:21.236Z,7.30
2022-11-17T07:59:49.914Z,6.67
2022-11-17T08:02:18.702Z,7.40
2022-11-17T08:04:48.794Z,6.53
2022-11-17T08:07:17.392Z,6.70
2022-11-17T08:09:46.139Z,6.43
2022-11-17T08:12:14.813Z,6.70
2022-11-17T08:14:43.695Z,6.30
2022-11-17T08:17:12.249Z,6.63
2022-11-17T08:19:41.030Z,6.77
2022-11-17T08:22:11.259Z,7.13
2022-11-17T08:24:39.995Z,6.00
2022-11-17T08:27:08.780Z,6.90
2022-11-17T08:29:37.453Z,6.53
2022-11-17T08:32:06.858Z,6.83
2022-11-17T08:34:35.848Z,6.90
2022-11-17T08:37:04.639Z,6.63
2022-11-17T08:39:34.647Z,6.63
2022-11-17T08:42:03.492Z,6.60
2022-11-17T08:44:32.800Z,7.90
2022-11-17T08:47:01.331Z,8.07
2022-11-17T08:49:30.263Z,6.30
2022-11-17T08:51:59.081Z,6.77
2022-11-17T08:54:27.970Z,5.30
2022-11-17T08:57:00.378Z,6.30
2022-11-17T08:59:29.560Z,6.83
2022-11-17T09:01:58.585Z,6.17
2022-11-17T09:04:27.872Z,5.97
2022-11-17T09:06:56.927Z,5.67
2022-11-17T09:09:25.719Z,5.30
2022-11-17T09:11:54.532Z,5.63
2022-11-17T09:14:24.875Z,5.83
2022-11-17T09:16:54.077Z,5.37
2022-11-17T09:19:22.944Z,5.60
2022-11-17T09:21:51.501Z,5.60
2022-11-17T09:24:20.161Z,6.13
2022-11-17T09:26:48.831Z,6.00
2022-11-17T09:29:17.553Z,6.17
2022-11-17T09:31:47.995Z,5.67
2022-11-17T09:34:17.573Z,5.83
2022-11-17T09:36:49.061Z,6.07
2022-11-17T09:39:17.819Z,6.13
2022-11-17T09:41:48.136Z,6.00
2022-11-17T09:44:39.862Z,5.97
2022-11-17T09:47:20.443Z,4.90
2022-11-17T09:49:59.215Z,5.93
2022-11-17T09:52:34.695Z,6.00
2022-11-17T09:55:13.410Z,5.33
2022-11-17T09:57:44.999Z,5.50
2022-11-17T10:00:15.976Z,5.57
2022-11-17T10:02:47.147Z,6.20
2022-11-17T10:05:20.596Z,5.47
2022-11-17T10:07:52.201Z,6.10
2022-11-17T10:10:23.838Z,5.70
2022-11-17T10:12:58.797Z,5.13
2022-11-17T10:15:30.837Z,5.47
2022-11-17T10:18:01.095Z,6.17
2022-11-17T10:20:30.616Z,5.83
2022-11-17T10:22:59.707Z,6.27
2022-11-17T10:25:39.289Z,5.60
2022-11-17T10:28:09.804Z,6.10
2022-11-17T10:30:38.904Z,5.60
2022-11-17T10:33:14.357Z,6.30
2022-11-17T10:35:58.096Z,5.80
2022-11-17T10:38:30.824Z,5.50
2022-11-17T10:41:03.024Z,5.70
2022-11-17T10:43:35.868Z,6.27
2022-11-17T10:46:08.426Z,5.93
2022-11-17T10:48:39.981Z,6.23
2022-11-17T10:51:23.875Z,6.20
2022-11-17T10:54:03.695Z,6.07
2022-11-17T10:56:35.329Z,6.90
2022-11-17T10:59:14.718Z,6.17
2022-11-17T11:01:45.225Z,6.50
2022-11-17T11:04:35.915Z,6.23
2022-11-17T11:07:11.049Z,5.87
2022-11-17T11:09:46.546Z,6.37
2022-11-17T11:12:20.502Z,5.97
2022-11-17T11:14:54.368Z,6.60
2022-11-17T11:17:23.573Z,6.57
2022-11-17T11:19:54.526Z,5.87
2022-11-17T11:22:33.178Z,6.77
2022-11-17T11:25:15.808Z,6.83
2022-11-17T11:28:00.347Z,6.70
2022-11-17T11:30:31.868Z,7.37
2022-11-17T11:33:16.028Z,6.97
2022-11-17T11:35:59.010Z,6.57
2022-11-17T11:38:42.808Z,6.13
2022-11-17T11:41:30.363Z,6.90
2022-11-17T11:44:18.851Z,6.60
2022-11-17T11:46:54.474Z,6.20
2022-11-17T11:49:33.664Z,6.10
2022-11-17T11:52:11.839Z,6.27
2022-11-17T11:54:50.623Z,5.90
2022-11-17T11:57:34.763Z,6.57
2022-11-17T12:00:05.944Z,6.03
2022-11-17T12:02:45.227Z,6.40
2022-11-17T12:05:22.819Z,6.50
2022-11-17T12:07:59.805Z,6.50
2022-11-17T12:10:34.850Z,5.87
2022-11-17T12:13:05.564Z,6.23
2022-11-17T12:15:36.691Z,6.03
2022-11-17T12:18:14.669Z,6.40
2022-11-17T12:21:01.234Z,6.73
2022-11-17T12:24:10.030Z,7.40
2022-11-17T12:26:39.249Z,6.47
2022-11-17T12:29:32.025Z,6.90
2022-11-17T12:32:03.528Z,6.40
2022-11-17T12:34:35.539Z,6.63
2022-11-17T12:37:20.110Z,6.70
2022-11-17T12:39:59.460Z,6.57
2022-11-17T12:42:28.620Z,6.90
2022-11-17T12:45:00.368Z,7.03
2022-11-17T12:47:31.612Z,7.30
2022-11-17T12:50:29.598Z,7.17
2022-11-17T12:53:39.576Z,6.73
2022-11-17T12:56:32.126Z,6.67
2022-11-17T12:59:24.710Z,6.43
2022-11-17T13:02:06.051Z,6.70
2022-11-17T13:04:49.102Z,6.30
2022-11-17T13:07:21.622Z,6.17
2022-11-17T13:09:57.145Z,6.93
2022-11-17T13:12:28.935Z,7.00
2022-11-17T13:14:59.044Z,7.00
2022-11-17T13:17:29.984Z,7.60
2022-11-17T13:20:04.178Z,6.97
2022-11-17T13:22:37.640Z,7.87
2022-11-17T13:25:23.309Z,7.97
2022-11-17T13:27:58.357Z,7.53
2022-11-17T13:30:31.665Z,7.63
2022-11-17T13:33:04.028Z,7.40
2022-11-17T13:35:35.588Z,7.93
2022-11-17T13:38:07.134Z,7.10
2022-11-17T13:40:38.162Z,7.83
2022-11-17T13:43:13.276Z,7.13
2022-11-17T13:45:43.468Z,6.93
2022-11-17T13:48:34.411Z,8.03
2022-11-17T13:51:27.912Z,7.40
2022-11-17T13:54:00.168Z,7.43
2022-11-17T13:56:33.713Z,7.87
2022-11-17T13:59:07.089Z,8.53
2022-11-17T14:01:36.183Z,7.67
2022-11-17T14:04:20.167Z,8.20
2022-11-17T14:07:00.745Z,7.83
2022-11-17T14:09:31.915Z,7.37
2022-11-17T14:12:01.739Z,7.40
2022-11-17T14:14:37.431Z,7.60
2022-11-17T14:17:14.474Z,7.57
2022-11-17T14:19:43.421Z,8.00
2022-11-17T14:22:31.452Z,7.50
2022-11-17T14:25:00.969Z,7.33
2022-11-17T14:27:41.180Z,7.33
2022-11-17T14:30:15.857Z,7.70
2022-11-17T14:32:44.686Z,7.40
2022-11-17T14:35:15.613Z,8.20
2022-11-17T14:37:44.731Z,7.17
2022-11-17T14:40:15.158Z,8.53
2022-11-17T14:42:44.076Z,8.30
2022-11-17T14:45:15.906Z,8.20
2022-11-17T14:47:45.253Z,8.23
2022-11-17T14:50:15.280Z,8.77
2022-11-17T14:52:45.791Z,9.20
2022-11-17T14:55:15.484Z,8.80
2022-11-17T14:57:44.177Z,8.80
2022-11-17T15:00:20.400Z,9.10
2022-11-17T15:02:49.685Z,8.00
2022-11-17T15:05:18.861Z,8.57
2022-11-17T15:07:48.231Z,7.87
2022-11-17T15:10:17.694Z,7.47
2022-11-17T15:12:46.380Z,8.40
2022-11-17T15:15:16.475Z,8.07
2022-11-17T15:17:45.225Z,8.40
2022-11-17T15:20:13.878Z,8.90
2022-11-17T15:22:42.490Z,11.47
2022-11-17T15:25:11.363Z,8.83
2022-11-17T15:27:39.928Z,7.97
2022-11-17T15:30:09.636Z,8.73
2022-11-17T15:32:39.691Z,9.73
2022-11-17T15:35:09.355Z,8.97
2022-11-17T15:37:38.045Z,9.07
2022-11-17T15:40:07.960Z,7.97
2022-11-17T15:42:37.662Z,10.03
2022-11-17T15:45:06.951Z,8.50
2022-11-17T15:47:35.843Z,9.50
2022-11-17T15:50:06.475Z,8.67
2022-11-17T15:53:02.273Z,8.73
2022-11-17T15:55:23.809Z,9.03
2022-11-17T15:57:54.678Z,8.77
2022-11-17T16:00:23.482Z,9.13
2022-11-17T16:02:57.237Z,9.13
2022-11-17T16:05:28.674Z,8.93
2022-11-17T16:07:57.158Z,10.60
2022-11-17T16:10:27.280Z,9.73
2022-11-17T16:12:56.472Z,10.00
2022-11-17T16:15:25.049Z,8.07
2022-11-17T16:17:54.176Z,7.37
2022-11-17T16:20:22.806Z,7.47
2022-11-17T16:22:52.737Z,8.67
2022-11-17T16:25:21.240Z,9.57
2022-11-17T16:27:49.880Z,9.93
2022-11-17T16:30:18.854Z,9.40
2022-11-17T16:32:47.485Z,9.63
2022-11-17T16:35:16.227Z,10.83
2022-11-17T16:37:44.805Z,10.43
2022-11-17T16:40:14.886Z,10.40
2022-11-17T16:42:43.461Z,10.97
2022-11-17T16:45:12.186Z,11.40
2022-11-17T16:47:40.706Z,10.93
2022-11-17T16:50:09.944Z,13.57
2022-11-17T16:52:38.553Z,12.13
2022-11-17T16:55:08.377Z,10.13
2022-11-17T16:57:38.318Z,11.97
2022-11-17T17:00:08.457Z,11.60
2022-11-17T17:02:36.985Z,17.73
2022-11-17T17:05:06.106Z,17.67
2022-11-17T17:07:34.730Z,16.87
2022-11-17T17:10:03.349Z,11.57
2022-11-17T17:12:31.927Z,12.23
2022-11-17T17:15:01.880Z,11.80
2022-11-17T17:17:30.403Z,10.27
2022-11-17T17:19:58.998Z,9.57
2022-11-17T17:22:27.542Z,10.40
2022-11-17T17:24:56.136Z,9.63
2022-11-17T17:27:24.702Z,11.97
2022-11-17T17:29:56.741Z,10.37
2022-11-17T17:32:26.731Z,10.93
2022-11-17T17:34:55.292Z,10.17
2022-11-17T17:37:23.787Z,9.23
2022-11-17T17:39:52.279Z,10.23
2022-11-17T17:42:20.859Z,10.77
2022-11-17T17:44:49.380Z,11.33
2022-11-17T17:47:17.947Z,12.17
2022-11-17T17:49:48.118Z,11.13
2022-11-17T17:52:16.803Z,11.10
2022-11-17T17:54:45.381Z,9.57
2022-11-17T17:57:13.941Z,9.30
2022-11-17T17:59:42.513Z,9.77
2022-11-17T18:02:11.131Z,10.17
2022-11-17T18:04:39.628Z,10.77
2022-11-17T18:07:09.603Z,10.37
2022-11-17T18:09:38.262Z,10.23
2022-11-17T18:12:07.132Z,11.00
2022-11-17T18:14:35.767Z,10.83
2022-11-17T18:17:04.344Z,9.70
2022-11-17T18:19:33.515Z,10.53
2022-11-17T18:22:02.363Z,11.40
2022-11-17T18:24:32.360Z,10.70
2022-11-17T18:27:00.964Z,10.47
2022-11-17T18:29:29.479Z,10.00
2022-11-17T18:31:58.177Z,10.70
2022-11-17T18:34:27.136Z,11.33
2022-11-17T18:36:56.702Z,10.27
2022-11-17T18:39:27.437Z,11.43
2022-11-17T18:41:57.482Z,10.90
2022-11-17T18:44:26.174Z,11.77
2022-11-17T18:46:59.593Z,11.33
2022-11-17T18:49:31.575Z,10.13
2022-11-17T18:52:00.150Z,11.53
2022-11-17T18:54:29.987Z,13.40
2022-11-17T18:57:00.225Z,13.20
2022-11-17T18:59:28.806Z,14.23
2022-11-17T19:01:57.434Z,12.43
2022-11-17T19:04:26.247Z,13.87
2022-11-17T19:06:54.872Z,12.83
2022-11-17T19:09:23.488Z,12.57
2022-11-17T19:11:52.809Z,13.17
2022-11-17T19:14:22.721Z,12.83
2022-11-17T19:16:51.434Z,12.60
2022-11-17T19:19:20.408Z,12.10
2022-11-17T19:21:49.161Z,11.97
2022-11-17T19:24:18.091Z,12.90
2022-11-17T19:26:47.438Z,14.17
2022-11-17T19:29:17.616Z,13.53
2022-11-17T19:31:48.581Z,13.30
2022-11-17T19:34:17.389Z,13.13
2022-11-17T19:36:46.133Z,12.47
2022-11-17T19:39:15.379Z,13.57
2022-11-17T19:41:45.091Z,13.60
2022-11-17T19:44:13.977Z,14.47
2022-11-17T19:46:43.336Z,13.07
2022-11-17T19:49:14.068Z,12.87
2022-11-17T19:51:43.083Z,12.97
2022-11-17T19:54:13.360Z,12.30
2022-11-17T19:56:41.971Z,12.90
2022-11-17T19:59:15.584Z,12.57
2022-11-17T20:01:45.525Z,13.73
2022-11-17T20:04:16.001Z,13.60
2022-11-17T20:06:45.113Z,14.43
2022-11-17T20:09:15.548Z,14.73
2022-11-17T20:11:44.565Z,13.70
2022-11-17T20:14:15.593Z,13.10
2022-11-17T20:16:44.150Z,13.60
2022-11-17T20:19:13.807Z,13.80
2022-11-17T20:21:44.023Z,15.03
2022-11-17T20:24:13.122Z,13.90
2022-11-17T20:26:43.060Z,13.00
2022-11-17T20:29:11.672Z,14.33
2022-11-17T20:31:40.532Z,14.07
2022-11-17T20:34:13.084Z,14.33
2022-11-17T20:36:43.194Z,13.97
2022-11-17T20:39:12.368Z,14.27
2022-11-17T20:41:41.030Z,14.73
2022-11-17T20:44:23.946Z,14.23
2022-11-17T20:46:53.547Z,14.73
2022-11-17T20:49:22.224Z,14.40
2022-11-17T20:51:52.302Z,14.53
2022-11-17T20:54:20.966Z,14.37
2022-11-17T20:56:49.494Z,14.33
2022-11-17T20:59:20.208Z,12.67
2022-11-17T21:01:50.290Z,14.03
2022-11-17T21:04:18.959Z,14.13
2022-11-17T21:06:47.750Z,14.37
2022-11-17T21:09:18.239Z,13.30
2022-11-17T21:11:59.306Z,14.20
2022-11-17T21:14:28.406Z,14.37
2022-11-17T21:17:00.806Z,14.73
2022-11-17T21:19:32.367Z,14.03
2022-11-17T21:22:02.997Z,13.83
2022-11-17T21:24:32.941Z,14.30
2022-11-17T21:27:01.551Z,14.67
2022-11-17T21:29:30.230Z,14.83
2022-11-17T21:31:59.059Z,13.97
2022-11-17T21:34:27.909Z,14.03
2022-11-17T21:36:56.677Z,14.33
2022-11-17T21:39:25.928Z,15.00
2022-11-17T21:41:56.273Z,15.10
2022-11-17T21:44:25.010Z,14.50
2022-11-17T21:46:53.698Z,14.17
2022-11-17T21:49:22.512Z,14.70
2022-11-17T21:51:51.194Z,15.70
2022-11-17T21:54:20.189Z,16.03
2022-11-17T21:56:49.266Z,16.63
2022-11-17T21:59:19.629Z,15.37
2022-11-17T22:01:48.425Z,16.17
2022-11-17T22:04:17.064Z,16.27
2022-11-17T22:06:46.222Z,15.67
2022-11-17T22:09:15.245Z,16.77
2022-11-17T22:11:44.339Z,16.53
2022-11-17T22:14:14.732Z,16.90
2022-11-17T22:16:46.325Z,17.10
2022-11-17T22:19:17.776Z,18.47
2022-11-17T22:21:48.981Z,16.00
2022-11-17T22:24:18.478Z,16.53
2022-11-17T22:26:47.520Z,17.70
2022-11-17T22:29:18.790Z,17.60
2022-11-17T22:31:50.266Z,18.10
2022-11-17T22:34:19.750Z,17.20
2022-11-17T22:36:48.478Z,16.87
2022-11-17T22:39:17.700Z,17.60
2022-11-17T22:41:46.496Z,18.70
2022-11-17T22:44:16.162Z,17.67
2022-11-17T22:46:45.812Z,17.57
2022-11-17T22:49:16.152Z,17.23
2022-11-17T22:52:02.687Z,18.03
2022-11-17T22:54:31.604Z,17.67
2022-11-17T22:57:00.641Z,16.73
2022-11-17T22:59:31.037Z,16.90
2022-11-17T23:02:00.016Z,17.33
2022-11-17T23:08:11.615Z,17.17
2022-11-17T23:10:40.669Z,16.50
2022-11-17T23:13:09.754Z,17.07
2022-11-17T23:15:39.965Z,16.93
2022-11-17T23:18:08.598Z,17.43
2022-11-17T23:20:37.745Z,17.73
2022-11-17T23:23:06.499Z,17.70
2022-11-17T23:25:36.659Z,18.00
2022-11-17T23:28:05.629Z,18.37
2022-11-17T23:30:34.730Z,16.13
2022-11-17T23:33:03.231Z,16.23
2022-11-17T23:35:31.836Z,15.67
2022-11-17T23:38:00.493Z,17.17
2022-11-17T23:40:29.264Z,16.03
2022-11-17T23:42:59.261Z,15.97
2022-11-17T23:45:27.852Z,15.10
2022-11-17T23:47:56.459Z,16.57
2022-11-17T23:50:25.538Z,16.10
2022-11-17T23:52:54.188Z,17.37
2022-11-17T23:55:22.679Z,16.00
2022-11-17T23:57:51.314Z,17.13
